createdAt,value
2022-11-24T00:02:23.801Z,7.66
2022-11-24T00:04:50.300Z,7.78
2022-11-24T00:07:16.644Z,7.80
2022-11-24T00:09:43.022Z,7.91
2022-11-24T00:12:09.409Z,7.89
2022-11-24T00:14:35.936Z,7.97
2022-11-24T00:17:02.463Z,7.85
2022-11-24T00:19:28.829Z,7.79
2022-11-24T00:21:55.233Z,7.85
2022-11-24T00:24:21.574Z,7.97
2022-11-24T00:26:47.937Z,7.95
2022-11-24T00:29:14.306Z,8.03
2022-11-24T00:31:42.348Z,8.18
2022-11-24T00:34:13.786Z,8.22
2022-11-24T00:36:41.226Z,8.20
2022-11-24T00:39:11.857Z,7.99
2022-11-24T00:41:39.331Z,8.19
2022-11-24T00:44:06.105Z,8.16
2022-11-24T00:46:32.673Z,8.24
2022-11-24T00:49:00.411Z,8.29
2022-11-24T00:51:29.658Z,8.26
2022-11-24T00:53:57.758Z,8.22
2022-11-24T00:56:25.136Z,8.30
2022-11-24T00:58:52.193Z,8.18
2022-11-24T01:01:21.995Z,8.15
2022-11-24T01:03:48.551Z,8.19
2022-11-24T01:06:23.395Z,8.22
2022-11-24T01:08:50.102Z,8.16
2022-11-24T01:11:22.270Z,8.07
2022-11-24T01:13:52.809Z,8.08
2022-11-24T01:16:25.571Z,8.10
2022-11-24T01:18:54.151Z,8.12
2022-11-24T01:21:22.400Z,8.15
2022-11-24T01:23:49.221Z,8.11
2022-11-24T01:26:18.242Z,8.05
2022-11-24T01:28:47.442Z,8.01
2022-11-24T01:31:14.777Z,7.91
2022-11-24T01:33:41.408Z,7.89
2022-11-24T01:36:07.816Z,7.95
2022-11-24T01:38:34.214Z,8.03
2022-11-24T01:41:07.571Z,8.07
2022-11-24T01:43:34.478Z,8.02
2022-11-24T01:46:15.893Z,8.05
2022-11-24T01:48:51.743Z,7.99
2022-11-24T01:51:24.239Z,8.00
2022-11-24T01:54:05.991Z,8.06
2022-11-24T01:56:37.024Z,7.99
2022-11-24T01:59:07.403Z,7.93
2022-11-24T02:01:34.416Z,7.84
2022-11-24T02:04:06.845Z,7.92
2022-11-24T02:06:36.727Z,7.84
2022-11-24T02:09:16.523Z,7.88
2022-11-24T02:11:44.476Z,7.87
2022-11-24T02:14:14.615Z,7.87
2022-11-24T02:16:44.235Z,7.88
2022-11-24T02:19:24.298Z,7.86
2022-11-24T02:21:50.841Z,7.85
2022-11-24T02:24:21.614Z,7.88
2022-11-24T02:26:49.546Z,7.96
2022-11-24T02:29:16.001Z,7.99
2022-11-24T02:31:47.447Z,8.02
2022-11-24T02:34:13.974Z,7.97
2022-11-24T02:36:40.302Z,7.91
2022-11-24T02:39:12.469Z,7.90
2022-11-24T02:41:43.253Z,7.94
2022-11-24T02:44:09.688Z,7.88
2022-11-24T02:46:36.071Z,7.95
2022-11-24T02:49:02.451Z,7.97
2022-11-24T02:51:29.609Z,8.10
2022-11-24T02:53:56.142Z,8.12
2022-11-24T02:56:22.484Z,8.10
2022-11-24T02:58:48.822Z,8.04
2022-11-24T03:01:15.181Z,8.14
2022-11-24T03:03:41.547Z,8.12
2022-11-24T03:06:07.892Z,8.27
2022-11-24T03:08:34.202Z,8.30
2022-11-24T03:11:02.189Z,8.38
2022-11-24T03:13:28.718Z,8.41
2022-11-24T03:15:55.377Z,8.43
2022-11-24T03:18:21.784Z,8.23
2022-11-24T03:20:48.113Z,8.22
2022-11-24T03:23:14.508Z,8.05
2022-11-24T03:25:40.847Z,8.03
2022-11-24T03:28:07.191Z,7.98
2022-11-24T03:30:33.538Z,8.01
2022-11-24T03:32:59.858Z,7.95
2022-11-24T03:35:26.191Z,7.98
2022-11-24T03:37:52.662Z,8.05
2022-11-24T03:40:19.043Z,8.11
2022-11-24T03:42:45.386Z,7.95
2022-11-24T03:45:38.197Z,8.00
2022-11-24T03:47:58.150Z,7.95
2022-11-24T03:50:24.466Z,7.84
2022-11-24T03:52:50.974Z,7.84
2022-11-24T03:55:17.301Z,7.86
2022-11-24T03:57:43.668Z,7.82
2022-11-24T04:00:11.055Z,7.81
2022-11-24T04:02:37.963Z,7.82
2022-11-24T04:05:05.333Z,7.82
2022-11-24T04:07:31.686Z,7.82
2022-11-24T04:09:58.427Z,7.77
2022-11-24T04:12:43.205Z,7.68
2022-11-24T04:15:11.637Z,7.68
2022-11-24T04:17:37.950Z,7.67
2022-11-24T04:20:05.241Z,7.73
2022-11-24T04:22:31.570Z,7.78
2022-11-24T04:24:57.941Z,7.80
2022-11-24T04:27:24.290Z,7.80
2022-11-24T04:29:51.029Z,7.75
2022-11-24T04:32:17.547Z,7.75
2022-11-24T04:34:44.105Z,7.81
2022-11-24T04:37:10.594Z,7.84
2022-11-24T04:39:36.933Z,7.92
2022-11-24T04:42:03.489Z,7.96
2022-11-24T04:44:29.832Z,7.92
2022-11-24T04:46:56.290Z,7.98
2022-11-24T04:49:22.935Z,7.92
2022-11-24T04:51:49.454Z,8.06
2022-11-24T04:54:16.298Z,8.07
2022-11-24T04:56:43.768Z,8.09
2022-11-24T04:59:14.865Z,8.03
2022-11-24T05:01:45.757Z,8.18
2022-11-24T05:04:14.546Z,7.99
2022-11-24T05:06:41.230Z,8.02
2022-11-24T05:09:08.187Z,8.02
2022-11-24T05:11:34.723Z,8.00
2022-11-24T05:14:01.799Z,7.99
2022-11-24T05:16:28.181Z,7.96
2022-11-24T05:18:54.539Z,7.95
2022-11-24T05:21:20.859Z,7.90
2022-11-24T05:23:47.193Z,7.99
2022-11-24T05:26:13.521Z,8.06
2022-11-24T05:28:39.869Z,8.03
2022-11-24T05:31:06.231Z,8.03
2022-11-24T05:33:33.267Z,8.04
2022-11-24T05:36:04.911Z,8.06
2022-11-24T05:38:32.163Z,8.03
2022-11-24T05:41:05.703Z,8.04
2022-11-24T05:43:32.108Z,8.12
2022-11-24T05:46:01.852Z,8.04
2022-11-24T05:48:28.696Z,8.02
2022-11-24T05:50:57.889Z,7.99
2022-11-24T05:53:26.389Z,8.01
2022-11-24T05:55:52.759Z,8.08
2022-11-24T05:58:19.101Z,8.11
2022-11-24T06:00:45.770Z,8.13
2022-11-24T06:03:12.706Z,8.15
2022-11-24T06:05:39.400Z,8.16
2022-11-24T06:08:05.914Z,8.24
2022-11-24T06:10:32.281Z,8.26
2022-11-24T06:12:58.646Z,8.31
2022-11-24T06:15:26.005Z,8.19
2022-11-24T06:17:55.130Z,8.14
2022-11-24T06:20:22.271Z,8.15
2022-11-24T06:22:48.791Z,8.10
2022-11-24T06:25:16.132Z,8.12
2022-11-24T06:27:42.875Z,8.16
2022-11-24T06:30:09.809Z,8.22
2022-11-24T06:32:36.184Z,8.22
2022-11-24T06:35:02.636Z,8.22
2022-11-24T06:37:28.989Z,8.18
2022-11-24T06:39:55.335Z,8.15
2022-11-24T06:42:21.886Z,8.17
2022-11-24T06:44:48.357Z,8.19
2022-11-24T06:47:15.330Z,8.31
2022-11-24T06:49:41.766Z,8.35
2022-11-24T06:52:08.370Z,8.42
2022-11-24T06:54:34.869Z,8.40
2022-11-24T06:57:01.329Z,8.24
2022-11-24T06:59:27.841Z,8.39
2022-11-24T07:01:54.193Z,8.46
2022-11-24T07:04:20.806Z,8.43
2022-11-24T07:06:47.118Z,8.38
2022-11-24T07:09:14.125Z,8.33
2022-11-24T07:11:41.362Z,8.50
2022-11-24T07:14:08.206Z,8.40
2022-11-24T07:16:34.776Z,8.49
2022-11-24T07:19:01.669Z,8.54
2022-11-24T07:21:29.113Z,8.57
2022-11-24T07:23:57.184Z,8.53
2022-11-24T07:26:24.783Z,8.48
2022-11-24T07:28:51.374Z,8.53
2022-11-24T07:31:20.473Z,8.57
2022-11-24T07:33:51.877Z,8.54
2022-11-24T07:36:18.600Z,8.54
2022-11-24T07:38:45.387Z,8.52
2022-11-24T07:41:13.038Z,8.63
2022-11-24T07:43:39.570Z,8.57
2022-11-24T07:46:11.497Z,8.43
2022-11-24T07:48:37.977Z,8.46
2022-11-24T07:51:05.548Z,8.44
2022-11-24T07:53:33.113Z,8.53
2022-11-24T07:56:00.998Z,8.46
2022-11-24T07:58:32.620Z,8.48
2022-11-24T08:00:59.838Z,8.57
2022-11-24T08:03:26.313Z,8.55
2022-11-24T08:08:43.211Z,8.49
2022-11-24T08:11:15.381Z,8.31
2022-11-24T08:13:41.799Z,8.38
2022-11-24T08:16:16.989Z,8.07
2022-11-24T08:18:44.324Z,7.96
2022-11-24T08:21:14.365Z,7.80
2022-11-24T08:23:41.451Z,7.83
2022-11-24T08:26:13.627Z,7.90
2022-11-24T08:28:40.026Z,7.86
2022-11-24T08:31:13.385Z,7.84
2022-11-24T08:33:40.697Z,7.82
2022-11-24T08:36:09.534Z,7.88
2022-11-24T08:38:36.494Z,7.92
2022-11-24T08:41:05.247Z,7.90
2022-11-24T08:43:31.753Z,7.84
2022-11-24T08:46:07.217Z,7.96
2022-11-24T08:48:34.177Z,7.97
2022-11-24T08:51:08.100Z,7.89
2022-11-24T08:53:34.451Z,7.91
2022-11-24T08:56:01.701Z,7.92
2022-11-24T08:58:29.395Z,7.85
2022-11-24T09:00:56.016Z,7.91
2022-11-24T09:03:22.441Z,7.91
2022-11-24T09:05:52.927Z,7.97
2022-11-24T09:08:19.520Z,7.88
2022-11-24T09:10:46.593Z,7.86
2022-11-24T09:13:12.909Z,7.85
2022-11-24T09:15:39.229Z,7.93
2022-11-24T09:18:05.598Z,7.92
2022-11-24T09:20:31.917Z,8.08
2022-11-24T09:22:58.230Z,8.13
2022-11-24T09:25:24.584Z,8.24
2022-11-24T09:27:51.140Z,8.30
2022-11-24T09:30:17.845Z,8.31
2022-11-24T09:32:44.310Z,8.34
2022-11-24T09:35:10.829Z,8.30
2022-11-24T09:37:37.286Z,8.41
2022-11-24T09:40:03.949Z,8.47
2022-11-24T09:42:40.193Z,8.46
2022-11-24T09:45:57.462Z,8.51
2022-11-24T09:48:27.441Z,8.49
2022-11-24T09:50:54.795Z,8.44
2022-11-24T09:53:34.014Z,8.56
2022-11-24T09:56:11.915Z,8.55
2022-11-24T09:58:51.064Z,8.65
2022-11-24T10:01:22.802Z,8.76
2022-11-24T10:03:51.085Z,8.78
2022-11-24T10:06:25.618Z,8.80
2022-11-24T10:09:10.569Z,8.85
2022-11-24T10:11:51.850Z,8.88
2022-11-24T10:14:55.604Z,9.02
2022-11-24T10:17:37.478Z,9.10
2022-11-24T10:20:09.889Z,9.22
2022-11-24T10:22:56.965Z,9.45
2022-11-24T10:25:51.822Z,9.50
2022-11-24T10:28:18.304Z,9.58
2022-11-24T10:30:44.767Z,9.69
2022-11-24T10:33:23.165Z,9.74
2022-11-24T10:36:01.876Z,9.60
2022-11-24T10:38:38.950Z,9.51
2022-11-24T10:41:12.268Z,9.51
2022-11-24T10:43:41.858Z,9.53
2022-11-24T10:46:13.365Z,9.58
2022-11-24T10:48:47.845Z,9.61
2022-11-24T10:51:42.466Z,9.72
2022-11-24T10:54:20.319Z,9.69
2022-11-24T10:56:50.157Z,9.60
2022-11-24T10:59:36.765Z,9.60
2022-11-24T11:02:29.961Z,9.63
2022-11-24T11:04:56.646Z,9.77
2022-11-24T11:07:25.905Z,9.74
2022-11-24T11:10:20.638Z,9.71
2022-11-24T11:12:47.603Z,9.82
2022-11-24T11:15:31.547Z,9.76
2022-11-24T11:18:01.146Z,9.82
2022-11-24T11:20:31.202Z,9.83
2022-11-24T11:23:00.400Z,9.81
2022-11-24T11:25:32.612Z,9.78
2022-11-24T11:28:18.354Z,9.91
2022-11-24T11:31:18.144Z,9.86
2022-11-24T11:34:04.248Z,9.90
2022-11-24T11:36:33.011Z,9.88
2022-11-24T11:38:59.688Z,9.74
2022-11-24T11:41:32.250Z,9.81
2022-11-24T11:44:16.830Z,9.81
2022-11-24T11:46:44.926Z,10.02
2022-11-24T11:49:13.232Z,10.12
2022-11-24T11:52:12.436Z,10.20
2022-11-24T11:55:08.806Z,9.91
2022-11-24T11:58:01.519Z,10.13
2022-11-24T12:00:33.946Z,10.09
2022-11-24T12:03:19.351Z,10.02
2022-11-24T12:06:03.548Z,10.08
2022-11-24T12:09:18.642Z,10.09
2022-11-24T12:11:53.162Z,10.10
2022-11-24T12:14:52.754Z,10.00
2022-11-24T12:17:38.783Z,10.12
2022-11-24T12:20:20.040Z,10.17
2022-11-24T12:22:55.498Z,10.25
2022-11-24T12:25:30.198Z,10.35
2022-11-24T12:28:13.271Z,10.26
2022-11-24T12:31:07.043Z,10.31
2022-11-24T12:33:47.589Z,10.21
2022-11-24T12:36:35.594Z,10.15
2022-11-24T12:39:07.130Z,10.25
2022-11-24T12:42:01.506Z,10.30
2022-11-24T12:44:38.990Z,10.30
2022-11-24T12:47:21.651Z,10.14
2022-11-24T12:50:10.325Z,10.08
2022-11-24T12:52:43.918Z,10.13
2022-11-24T12:55:22.066Z,10.15
2022-11-24T12:58:09.357Z,10.15
2022-11-24T13:01:18.940Z,10.26
2022-11-24T13:04:17.379Z,10.44
2022-11-24T13:07:01.091Z,10.62
2022-11-24T13:09:27.430Z,10.41
2022-11-24T13:12:05.886Z,10.49
2022-11-24T13:14:36.264Z,10.53
2022-11-24T13:17:32.895Z,10.48
2022-11-24T13:20:21.207Z,10.60
2022-11-24T13:22:56.250Z,10.51
2022-11-24T13:25:26.297Z,10.57
2022-11-24T13:27:55.300Z,10.82
2022-11-24T13:30:33.766Z,10.91
2022-11-24T13:33:16.514Z,10.86
2022-11-24T13:36:04.091Z,10.82
2022-11-24T13:38:45.843Z,11.06
2022-11-24T13:41:32.575Z,11.20
2022-11-24T13:44:14.637Z,11.27
2022-11-24T13:47:03.521Z,11.37
2022-11-24T13:49:42.549Z,11.36
2022-11-24T13:52:40.062Z,11.21
2022-11-24T13:55:12.391Z,11.47
2022-11-24T13:57:49.473Z,11.39
2022-11-24T14:00:24.675Z,11.38
2022-11-24T14:02:53.281Z,11.52
2022-11-24T14:05:24.050Z,11.38
2022-11-24T14:07:52.992Z,11.30
2022-11-24T14:10:32.378Z,11.43
2022-11-24T14:13:22.612Z,11.45
2022-11-24T14:16:04.115Z,11.47
2022-11-24T14:18:32.081Z,11.39
2022-11-24T14:21:01.260Z,11.28
2022-11-24T14:23:28.071Z,11.26
2022-11-24T14:25:54.583Z,11.23
2022-11-24T14:28:29.055Z,11.23
2022-11-24T14:31:09.440Z,11.26
2022-11-24T14:33:36.592Z,11.21
2022-11-24T14:36:03.249Z,11.25
2022-11-24T14:38:29.611Z,11.42
2022-11-24T14:40:56.495Z,11.35
2022-11-24T14:43:28.982Z,11.51
2022-11-24T14:46:02.254Z,11.49
2022-11-24T14:48:36.400Z,11.63
2022-11-24T14:51:10.318Z,11.54
2022-11-24T14:53:40.899Z,11.56
2022-11-24T14:56:28.946Z,11.41
2022-11-24T14:58:56.715Z,11.41
2022-11-24T15:01:23.292Z,11.38
2022-11-24T15:04:26.518Z,11.39
2022-11-24T15:07:27.408Z,11.40
2022-11-24T15:09:58.255Z,11.31
2022-11-24T15:12:36.037Z,11.07
2022-11-24T15:15:05.382Z,11.02
2022-11-24T15:17:32.238Z,10.99
2022-11-24T15:20:16.825Z,11.03
2022-11-24T15:22:46.441Z,11.12
2022-11-24T15:25:32.758Z,10.88
2022-11-24T15:28:00.397Z,11.03
2022-11-24T15:30:27.037Z,10.98
2022-11-24T15:32:56.078Z,11.08
2022-11-24T15:35:24.984Z,11.18
2022-11-24T15:37:51.635Z,11.34
2022-11-24T15:40:18.804Z,11.31
2022-11-24T15:42:54.447Z,11.22
2022-11-24T15:45:22.874Z,11.09
2022-11-24T15:47:50.167Z,10.87
2022-11-24T15:50:17.314Z,10.86
2022-11-24T15:52:44.225Z,10.92
2022-11-24T15:55:17.318Z,11.16
2022-11-24T15:57:44.322Z,11.31
2022-11-24T16:00:19.170Z,11.59
2022-11-24T16:02:45.523Z,11.80
2022-11-24T16:05:13.188Z,11.92
2022-11-24T16:07:39.989Z,12.01
2022-11-24T16:10:12.610Z,12.09
2022-11-24T16:12:38.915Z,12.09
2022-11-24T16:15:05.862Z,12.08
2022-11-24T16:17:32.409Z,11.90
2022-11-24T16:20:00.809Z,12.00
2022-11-24T16:22:27.349Z,11.98
2022-11-24T16:24:53.681Z,11.84
2022-11-24T16:27:20.026Z,11.86
2022-11-24T16:29:46.358Z,11.85
2022-11-24T16:32:12.702Z,11.78
2022-11-24T16:34:39.222Z,11.61
2022-11-24T16:37:05.550Z,11.66
2022-11-24T16:39:31.945Z,11.74
2022-11-24T16:41:58.288Z,11.82
2022-11-24T16:44:24.794Z,11.83
2022-11-24T16:46:51.122Z,11.79
2022-11-24T16:49:17.458Z,11.68
2022-11-24T16:51:44.000Z,11.30
2022-11-24T16:54:10.365Z,11.23
2022-11-24T16:56:36.785Z,10.92
2022-11-24T16:59:03.695Z,10.85
2022-11-24T17:01:30.162Z,10.52
2022-11-24T17:03:56.597Z,10.23
2022-11-24T17:06:23.394Z,9.86
2022-11-24T17:08:49.764Z,9.65
2022-11-24T17:11:18.823Z,9.74
2022-11-24T17:13:46.852Z,9.77
2022-11-24T17:16:15.226Z,9.94
2022-11-24T17:18:42.251Z,10.03
2022-11-24T17:21:13.776Z,10.07
2022-11-24T17:23:40.507Z,10.19
2022-11-24T17:26:10.312Z,10.30
2022-11-24T17:28:37.320Z,10.55
2022-11-24T17:31:17.870Z,10.72
2022-11-24T17:33:44.426Z,10.76
2022-11-24T17:36:10.755Z,10.82
2022-11-24T17:38:37.118Z,10.89
2022-11-24T17:41:03.542Z,10.97
2022-11-24T17:43:29.903Z,10.97
2022-11-24T17:45:59.301Z,10.86
2022-11-24T17:48:25.709Z,10.73
2022-11-24T17:51:07.686Z,10.84
2022-11-24T17:53:36.602Z,10.33
2022-11-24T17:56:04.521Z,9.92
2022-11-24T17:58:32.932Z,9.84
2022-11-24T18:00:59.804Z,9.99
2022-11-24T18:03:28.632Z,9.80
2022-11-24T18:05:55.863Z,9.90
2022-11-24T18:08:22.319Z,10.04
2022-11-24T18:10:48.645Z,10.20
2022-11-24T18:13:34.323Z,10.33
2022-11-24T18:16:02.688Z,10.38
2022-11-24T18:18:29.050Z,10.39
2022-11-24T18:20:56.198Z,10.32
2022-11-24T18:23:22.989Z,9.87
2022-11-24T18:25:57.542Z,9.93
2022-11-24T18:28:25.028Z,9.74
2022-11-24T18:30:51.521Z,9.39
2022-11-24T18:33:18.610Z,9.28
2022-11-24T18:35:55.383Z,8.95
2022-11-24T18:38:21.749Z,9.04
2022-11-24T18:40:56.052Z,8.98
2022-11-24T18:43:23.772Z,9.42
2022-11-24T18:45:50.945Z,9.54
2022-11-24T18:48:17.270Z,9.74
2022-11-24T18:50:43.716Z,9.73
2022-11-24T18:53:10.273Z,9.76
2022-11-24T18:55:36.785Z,9.76
2022-11-24T18:58:03.127Z,9.72
2022-11-24T19:00:29.784Z,9.52
2022-11-24T19:02:56.101Z,9.42
2022-11-24T19:05:22.449Z,9.51
2022-11-24T19:07:48.808Z,9.52
2022-11-24T19:10:16.128Z,9.58
2022-11-24T19:12:44.655Z,9.59
2022-11-24T19:15:11.356Z,9.43
2022-11-24T19:17:40.227Z,9.54
2022-11-24T19:20:07.343Z,9.55
2022-11-24T19:22:36.306Z,9.65
2022-11-24T19:25:02.924Z,9.67
2022-11-24T19:27:35.033Z,9.68
2022-11-24T19:30:04.114Z,9.67
2022-11-24T19:32:32.317Z,9.65
2022-11-24T19:35:01.070Z,9.54
2022-11-24T19:37:28.940Z,9.60
2022-11-24T19:40:01.158Z,9.68
2022-11-24T19:42:29.884Z,9.71
2022-11-24T19:44:58.021Z,9.78
2022-11-24T19:47:24.400Z,9.67
2022-11-24T19:49:50.722Z,9.70
2022-11-24T19:52:17.039Z,9.75
2022-11-24T19:54:43.421Z,9.75
2022-11-24T19:57:09.756Z,9.77
2022-11-24T19:59:36.262Z,9.73
2022-11-24T20:02:02.944Z,9.69
2022-11-24T20:04:29.666Z,9.66
2022-11-24T20:06:55.981Z,9.64
2022-11-24T20:09:22.338Z,9.64
2022-11-24T20:11:48.991Z,9.63
2022-11-24T20:14:18.157Z,9.68
2022-11-24T20:16:46.413Z,9.59
2022-11-24T20:19:14.714Z,9.65
2022-11-24T20:21:45.873Z,9.66
2022-11-24T20:24:15.625Z,9.67
2022-11-24T20:26:46.110Z,9.62
2022-11-24T20:29:13.726Z,9.63
2022-11-24T20:31:46.304Z,9.62
2022-11-24T20:34:13.733Z,9.63
2022-11-24T20:36:41.909Z,9.64
2022-11-24T20:39:13.437Z,9.63
2022-11-24T20:41:41.334Z,9.51
2022-11-24T20:44:13.103Z,9.46
2022-11-24T20:46:41.825Z,9.37
2022-11-24T20:49:11.788Z,9.33
2022-11-24T20:51:41.824Z,9.22
2022-11-24T20:54:09.163Z,9.14
2022-11-24T20:56:38.066Z,9.03
2022-11-24T20:59:04.611Z,9.08
2022-11-24T21:01:38.232Z,9.05
2022-11-24T21:04:07.059Z,9.03
2022-11-24T21:06:33.525Z,8.88
2022-11-24T21:09:03.788Z,8.94
2022-11-24T21:11:31.170Z,8.92
2022-11-24T21:13:57.604Z,8.94
2022-11-24T21:16:30.083Z,8.96
2022-11-24T21:18:59.669Z,9.02
2022-11-24T21:21:33.210Z,9.06
2022-11-24T21:24:01.069Z,9.03
2022-11-24T21:26:28.110Z,9.05
2022-11-24T21:28:54.425Z,8.94
2022-11-24T21:31:21.745Z,8.99
2022-11-24T21:33:50.496Z,9.02
2022-11-24T21:36:19.960Z,9.07
2022-11-24T21:38:54.859Z,9.02
2022-11-24T21:41:22.289Z,9.06
2022-11-24T21:43:49.949Z,9.08
2022-11-24T21:46:17.155Z,9.13
2022-11-24T21:48:43.681Z,9.15
2022-11-24T21:51:13.465Z,9.12
2022-11-24T21:53:40.706Z,9.10
2022-11-24T21:56:12.642Z,9.08
2022-11-24T21:58:53.865Z,9.07
2022-11-24T22:01:25.778Z,9.01
2022-11-24T22:03:52.135Z,8.96
2022-11-24T22:06:19.941Z,8.92
2022-11-24T22:08:47.942Z,8.88
2022-11-24T22:11:17.317Z,8.89
2022-11-24T22:13:44.101Z,8.86
2022-11-24T22:16:16.428Z,8.94
2022-11-24T22:18:44.218Z,8.87
2022-11-24T22:21:19.733Z,8.85
2022-11-24T22:23:46.296Z,8.87
2022-11-24T22:26:21.544Z,8.83
2022-11-24T22:28:48.392Z,8.80
2022-11-24T22:31:17.414Z,8.74
2022-11-24T22:33:44.345Z,8.71
2022-11-24T22:36:12.367Z,8.72
2022-11-24T22:38:38.858Z,8.71
2022-11-24T22:41:08.306Z,8.54
2022-11-24T22:43:36.324Z,8.61
2022-11-24T22:46:12.126Z,8.58
2022-11-24T22:48:39.226Z,8.63
2022-11-24T22:51:07.798Z,8.66
2022-11-24T22:53:34.189Z,8.65
2022-11-24T22:56:02.674Z,8.67
2022-11-24T22:58:30.497Z,8.52
2022-11-24T23:00:57.557Z,8.49
2022-11-24T23:03:23.990Z,8.52
2022-11-24T23:05:50.403Z,8.55
2022-11-24T23:08:16.722Z,8.58
2022-11-24T23:10:43.060Z,8.57
2022-11-24T23:13:09.374Z,8.54
2022-11-24T23:15:35.675Z,8.50
2022-11-24T23:18:01.973Z,8.46
2022-11-24T23:20:28.310Z,8.38
2022-11-24T23:22:56.751Z,8.37
2022-11-24T23:25:23.309Z,8.30
2022-11-24T23:27:49.874Z,8.11
2022-11-24T23:30:16.254Z,7.97
2022-11-24T23:32:42.610Z,7.96
2022-11-24T23:35:13.629Z,7.84
2022-11-24T23:38:06.054Z,7.66
2022-11-24T23:40:28.257Z,7.50
2022-11-24T23:42:54.581Z,7.16
2022-11-24T23:45:20.896Z,7.31
2022-11-24T23:47:47.219Z,7.42
2022-11-24T23:50:13.545Z,7.63
2022-11-24T23:52:39.880Z,7.65
2022-11-24T23:55:06.563Z,7.75
2022-11-24T23:57:32.895Z,7.85
2022-11-24T23:59:59.195Z,7.94
